sensor_id;sensor_type;location;lat;lon;timestamp;P1;durP1;ratioP1;P2;durP2;ratioP2
17741;SDS011;8993;51.822;-2.268;2023-03-01T00:03:23;1.54;;;0.55;;
17741;SDS011;8993;51.822;-2.268;2023-03-01T00:08:27;1.33;;;0.38;;
17741;SDS011;8993;51.822;-2.268;2023-03-01T00:13:31;0.71;;;0.26;;
17741;SDS011;8993;51.822;-2.268;2023-03-01T00:18:35;1.30;;;0.30;;
17741;SDS011;8993;51.822;-2.268;2023-03-01T00:23:39;2.23;;;0.44;;
17741;SDS011;8993;51.822;-2.268;2023-03-01T00:28:43;1.60;;;0.28;;
17741;SDS011;8993;51.822;-2.268;2023-03-01T00:33:47;1.94;;;0.36;;
17741;SDS011;8993;51.822;-2.268;2023-03-01T00:38:51;1.05;;;0.29;;
17741;SDS011;8993;51.822;-2.268;2023-03-01T00:43:55;2.28;;;0.54;;
17741;SDS011;8993;51.822;-2.268;2023-03-01T00:48:59;2.46;;;0.61;;
17741;SDS011;8993;51.822;-2.268;2023-03-01T00:54:03;1.46;;;0.40;;
17741;SDS011;8993;51.822;-2.268;2023-03-01T00:59:07;1.05;;;0.36;;
17741;SDS011;8993;51.822;-2.268;2023-03-01T01:04:12;2.02;;;0.46;;
17741;SDS011;8993;51.822;-2.268;2023-03-01T01:09:16;1.73;;;0.48;;
17741;SDS011;8993;51.822;-2.268;2023-03-01T01:14:20;1.94;;;0.52;;
17741;SDS011;8993;51.822;-2.268;2023-03-01T01:19:24;3.59;;;0.64;;
17741;SDS011;8993;51.822;-2.268;2023-03-01T01:24:28;2.42;;;0.72;;
17741;SDS011;8993;51.822;-2.268;2023-03-01T01:29:32;2.18;;;0.74;;
17741;SDS011;8993;51.822;-2.268;2023-03-01T01:34:36;2.16;;;0.73;;
17741;SDS011;8993;51.822;-2.268;2023-03-01T01:39:41;2.49;;;0.77;;
17741;SDS011;8993;51.822;-2.268;2023-03-01T01:44:45;2.10;;;0.71;;
17741;SDS011;8993;51.822;-2.268;2023-03-01T01:49:49;2.88;;;0.78;;
17741;SDS011;8993;51.822;-2.268;2023-03-01T01:54:53;4.21;;;0.95;;
17741;SDS011;8993;51.822;-2.268;2023-03-01T01:59:57;3.74;;;0.86;;
17741;SDS011;8993;51.822;-2.268;2023-03-01T02:05:03;3.36;;;0.83;;
17741;SDS011;8993;51.822;-2.268;2023-03-01T02:10:07;2.73;;;0.90;;
17741;SDS011;8993;51.822;-2.268;2023-03-01T02:15:10;2.41;;;0.74;;
17741;SDS011;8993;51.822;-2.268;2023-03-01T02:20:16;2.76;;;0.83;;
17741;SDS011;8993;51.822;-2.268;2023-03-01T02:25:22;3.55;;;0.96;;
17741;SDS011;8993;51.822;-2.268;2023-03-01T02:30:22;3.47;;;0.99;;
17741;SDS011;8993;51.822;-2.268;2023-03-01T02:35:26;2.92;;;1.09;;
17741;SDS011;8993;51.822;-2.268;2023-03-01T02:40:32;3.50;;;1.10;;
17741;SDS011;8993;51.822;-2.268;2023-03-01T02:45:38;3.63;;;1.20;;
17741;SDS011;8993;51.822;-2.268;2023-03-01T02:55:47;3.92;;;1.31;;
17741;SDS011;8993;51.822;-2.268;2023-03-01T03:00:51;3.91;;;1.29;;
17741;SDS011;8993;51.822;-2.268;2023-03-01T03:05:56;4.45;;;1.47;;
17741;SDS011;8993;51.822;-2.268;2023-03-01T03:11:02;5.57;;;1.88;;
17741;SDS011;8993;51.822;-2.268;2023-03-01T03:16:07;5.36;;;1.90;;
17741;SDS011;8993;51.822;-2.268;2023-03-01T03:21:10;4.64;;;2.10;;
17741;SDS011;8993;51.822;-2.268;2023-03-01T03:26:14;5.55;;;2.04;;
17741;SDS011;8993;51.822;-2.268;2023-03-01T03:31:18;4.97;;;2.19;;
17741;SDS011;8993;51.822;-2.268;2023-03-01T03:36:22;5.20;;;2.65;;
17741;SDS011;8993;51.822;-2.268;2023-03-01T03:41:27;7.01;;;2.55;;
17741;SDS011;8993;51.822;-2.268;2023-03-01T03:46:31;3.69;;;2.49;;
17741;SDS011;8993;51.822;-2.268;2023-03-01T03:51:35;6.83;;;2.77;;
17741;SDS011;8993;51.822;-2.268;2023-03-01T03:56:39;7.22;;;2.90;;
17741;SDS011;8993;51.822;-2.268;2023-03-01T04:01:43;6.29;;;2.83;;
17741;SDS011;8993;51.822;-2.268;2023-03-01T04:06:47;4.97;;;2.89;;
17741;SDS011;8993;51.822;-2.268;2023-03-01T04:11:51;6.81;;;3.29;;
17741;SDS011;8993;51.822;-2.268;2023-03-01T04:16:55;6.22;;;3.28;;
17741;SDS011;8993;51.822;-2.268;2023-03-01T04:21:59;6.65;;;3.71;;
17741;SDS011;8993;51.822;-2.268;2023-03-01T04:27:03;6.59;;;3.59;;
17741;SDS011;8993;51.822;-2.268;2023-03-01T04:32:07;8.67;;;4.35;;
17741;SDS011;8993;51.822;-2.268;2023-03-01T04:37:12;7.88;;;4.74;;
17741;SDS011;8993;51.822;-2.268;2023-03-01T04:42:15;9.17;;;5.50;;
17741;SDS011;8993;51.822;-2.268;2023-03-01T04:47:19;10.05;;;5.74;;
17741;SDS011;8993;51.822;-2.268;2023-03-01T04:52:23;9.17;;;5.76;;
17741;SDS011;8993;51.822;-2.268;2023-03-01T04:57:27;9.94;;;5.81;;
17741;SDS011;8993;51.822;-2.268;2023-03-01T05:02:31;11.62;;;6.05;;
17741;SDS011;8993;51.822;-2.268;2023-03-01T05:07:35;9.14;;;4.66;;
17741;SDS011;8993;51.822;-2.268;2023-03-01T05:12:39;8.38;;;4.21;;
17741;SDS011;8993;51.822;-2.268;2023-03-01T05:17:43;7.71;;;3.48;;
17741;SDS011;8993;51.822;-2.268;2023-03-01T05:22:47;9.15;;;3.30;;
17741;SDS011;8993;51.822;-2.268;2023-03-01T05:27:51;8.89;;;3.44;;
17741;SDS011;8993;51.822;-2.268;2023-03-01T05:32:56;9.28;;;3.62;;
17741;SDS011;8993;51.822;-2.268;2023-03-01T05:38:01;9.33;;;3.66;;
17741;SDS011;8993;51.822;-2.268;2023-03-01T05:43:05;8.32;;;3.24;;
17741;SDS011;8993;51.822;-2.268;2023-03-01T05:48:17;10.14;;;3.99;;
17741;SDS011;8993;51.822;-2.268;2023-03-01T05:53:12;12.46;;;4.18;;
17741;SDS011;8993;51.822;-2.268;2023-03-01T05:58:18;10.56;;;4.21;;
17741;SDS011;8993;51.822;-2.268;2023-03-01T06:03:20;10.62;;;4.02;;
17741;SDS011;8993;51.822;-2.268;2023-03-01T06:08:25;8.52;;;3.54;;
17741;SDS011;8993;51.822;-2.268;2023-03-01T06:13:29;9.31;;;3.43;;
17741;SDS011;8993;51.822;-2.268;2023-03-01T06:18:34;9.55;;;3.53;;
17741;SDS011;8993;51.822;-2.268;2023-03-01T06:23:38;11.35;;;3.50;;
17741;SDS011;8993;51.822;-2.268;2023-03-01T06:28:43;10.44;;;4.04;;
17741;SDS011;8993;51.822;-2.268;2023-03-01T06:33:47;11.59;;;4.48;;
17741;SDS011;8993;51.822;-2.268;2023-03-01T06:38:55;14.50;;;5.67;;
17741;SDS011;8993;51.822;-2.268;2023-03-01T06:43:59;13.11;;;5.53;;
17741;SDS011;8993;51.822;-2.268;2023-03-01T06:49:03;12.75;;;6.20;;
17741;SDS011;8993;51.822;-2.268;2023-03-01T06:54:07;15.04;;;6.71;;
17741;SDS011;8993;51.822;-2.268;2023-03-01T06:59:11;18.45;;;7.45;;
17741;SDS011;8993;51.822;-2.268;2023-03-01T07:04:15;16.07;;;7.28;;
17741;SDS011;8993;51.822;-2.268;2023-03-01T07:09:19;17.01;;;7.61;;
17741;SDS011;8993;51.822;-2.268;2023-03-01T07:14:23;16.44;;;7.50;;
17741;SDS011;8993;51.822;-2.268;2023-03-01T07:19:27;17.89;;;8.01;;
17741;SDS011;8993;51.822;-2.268;2023-03-01T07:24:31;16.52;;;7.85;;
17741;SDS011;8993;51.822;-2.268;2023-03-01T07:29:36;18.44;;;8.73;;
17741;SDS011;8993;51.822;-2.268;2023-03-01T07:34:40;18.59;;;8.80;;
17741;SDS011;8993;51.822;-2.268;2023-03-01T07:39:44;17.37;;;8.35;;
17741;SDS011;8993;51.822;-2.268;2023-03-01T07:44:48;16.75;;;8.68;;
17741;SDS011;8993;51.822;-2.268;2023-03-01T07:49:52;20.68;;;10.81;;
17741;SDS011;8993;51.822;-2.268;2023-03-01T07:54:56;23.05;;;11.33;;
17741;SDS011;8993;51.822;-2.268;2023-03-01T08:00:00;21.96;;;12.06;;
17741;SDS011;8993;51.822;-2.268;2023-03-01T08:05:04;23.15;;;11.89;;
17741;SDS011;8993;51.822;-2.268;2023-03-01T08:10:10;26.36;;;13.12;;
17741;SDS011;8993;51.822;-2.268;2023-03-01T08:15:12;26.64;;;13.44;;
17741;SDS011;8993;51.822;-2.268;2023-03-01T08:20:17;25.51;;;13.60;;
17741;SDS011;8993;51.822;-2.268;2023-03-01T08:25:20;25.46;;;14.23;;
17741;SDS011;8993;51.822;-2.268;2023-03-01T08:30:27;25.61;;;14.01;;
17741;SDS011;8993;51.822;-2.268;2023-03-01T08:35:31;28.94;;;14.94;;
17741;SDS011;8993;51.822;-2.268;2023-03-01T08:40:35;24.73;;;12.64;;
17741;SDS011;8993;51.822;-2.268;2023-03-01T08:45:39;21.95;;;12.04;;
17741;SDS011;8993;51.822;-2.268;2023-03-01T08:50:43;17.16;;;9.53;;
17741;SDS011;8993;51.822;-2.268;2023-03-01T08:55:47;18.46;;;10.15;;
17741;SDS011;8993;51.822;-2.268;2023-03-01T09:00:52;17.18;;;8.90;;
17741;SDS011;8993;51.822;-2.268;2023-03-01T09:05:59;15.89;;;8.34;;
17741;SDS011;8993;51.822;-2.268;2023-03-01T09:11:01;15.64;;;8.67;;
17741;SDS011;8993;51.822;-2.268;2023-03-01T09:16:06;16.68;;;8.44;;
17741;SDS011;8993;51.822;-2.268;2023-03-01T09:21:09;15.13;;;8.57;;
17741;SDS011;8993;51.822;-2.268;2023-03-01T09:26:13;15.82;;;8.92;;
17741;SDS011;8993;51.822;-2.268;2023-03-01T09:31:18;21.91;;;11.86;;
17741;SDS011;8993;51.822;-2.268;2023-03-01T09:36:21;15.73;;;9.04;;
17741;SDS011;8993;51.822;-2.268;2023-03-01T09:41:30;12.67;;;7.19;;
17741;SDS011;8993;51.822;-2.268;2023-03-01T09:46:31;14.24;;;8.15;;
17741;SDS011;8993;51.822;-2.268;2023-03-01T09:51:35;9.49;;;4.21;;
17741;SDS011;8993;51.822;-2.268;2023-03-01T09:56:40;12.61;;;6.28;;
17741;SDS011;8993;51.822;-2.268;2023-03-01T10:01:44;12.33;;;5.21;;
17741;SDS011;8993;51.822;-2.268;2023-03-01T10:06:48;12.46;;;5.44;;
17741;SDS011;8993;51.822;-2.268;2023-03-01T10:11:52;9.44;;;3.47;;
17741;SDS011;8993;51.822;-2.268;2023-03-01T10:16:56;7.07;;;2.72;;
17741;SDS011;8993;51.822;-2.268;2023-03-01T10:22:01;9.49;;;4.49;;
17741;SDS011;8993;51.822;-2.268;2023-03-01T10:27:05;7.41;;;3.26;;
17741;SDS011;8993;51.822;-2.268;2023-03-01T10:32:08;7.96;;;3.95;;
17741;SDS011;8993;51.822;-2.268;2023-03-01T10:37:12;9.62;;;4.67;;
17741;SDS011;8993;51.822;-2.268;2023-03-01T10:42:19;9.21;;;4.20;;
17741;SDS011;8993;51.822;-2.268;2023-03-01T10:47:20;6.15;;;3.68;;
17741;SDS011;8993;51.822;-2.268;2023-03-01T10:52:25;6.32;;;3.59;;
17741;SDS011;8993;51.822;-2.268;2023-03-01T10:57:29;8.29;;;4.69;;
17741;SDS011;8993;51.822;-2.268;2023-03-01T11:02:32;9.93;;;5.03;;
17741;SDS011;8993;51.822;-2.268;2023-03-01T11:07:46;7.28;;;4.28;;
17741;SDS011;8993;51.822;-2.268;2023-03-01T11:12:41;9.25;;;5.61;;
17741;SDS011;8993;51.822;-2.268;2023-03-01T11:17:46;9.50;;;5.81;;
17741;SDS011;8993;51.822;-2.268;2023-03-01T11:22:50;8.58;;;5.64;;
17741;SDS011;8993;51.822;-2.268;2023-03-01T11:27:54;9.50;;;5.47;;
17741;SDS011;8993;51.822;-2.268;2023-03-01T11:33:03;9.24;;;5.40;;
17741;SDS011;8993;51.822;-2.268;2023-03-01T11:38:08;8.69;;;4.38;;
17741;SDS011;8993;51.822;-2.268;2023-03-01T11:43:11;6.27;;;3.74;;
17741;SDS011;8993;51.822;-2.268;2023-03-01T11:48:17;5.29;;;2.90;;
17741;SDS011;8993;51.822;-2.268;2023-03-01T11:53:22;6.60;;;2.91;;
17741;SDS011;8993;51.822;-2.268;2023-03-01T11:58:26;6.75;;;3.62;;
17741;SDS011;8993;51.822;-2.268;2023-03-01T12:03:26;7.13;;;4.53;;
17741;SDS011;8993;51.822;-2.268;2023-03-01T12:08:28;8.21;;;4.65;;
17741;SDS011;8993;51.822;-2.268;2023-03-01T12:14:08;7.43;;;4.25;;
17741;SDS011;8993;51.822;-2.268;2023-03-01T12:18:43;8.25;;;4.52;;
17741;SDS011;8993;51.822;-2.268;2023-03-01T12:28:47;6.79;;;3.58;;
17741;SDS011;8993;51.822;-2.268;2023-03-01T12:33:49;7.89;;;4.49;;
17741;SDS011;8993;51.822;-2.268;2023-03-01T12:38:56;9.89;;;5.29;;
17741;SDS011;8993;51.822;-2.268;2023-03-01T12:43:59;6.92;;;3.97;;
17741;SDS011;8993;51.822;-2.268;2023-03-01T12:49:04;5.84;;;2.98;;
17741;SDS011;8993;51.822;-2.268;2023-03-01T12:54:06;7.42;;;3.45;;
17741;SDS011;8993;51.822;-2.268;2023-03-01T12:59:12;6.02;;;3.62;;
17741;SDS011;8993;51.822;-2.268;2023-03-01T13:04:24;6.51;;;3.73;;
17741;SDS011;8993;51.822;-2.268;2023-03-01T13:09:23;7.28;;;3.81;;
17741;SDS011;8993;51.822;-2.268;2023-03-01T13:14:45;8.62;;;3.94;;
17741;SDS011;8993;51.822;-2.268;2023-03-01T13:24:37;6.27;;;3.33;;
17741;SDS011;8993;51.822;-2.268;2023-03-01T13:29:44;5.94;;;1.63;;
17741;SDS011;8993;51.822;-2.268;2023-03-01T13:34:46;3.51;;;1.42;;
17741;SDS011;8993;51.822;-2.268;2023-03-01T13:39:49;5.98;;;1.70;;
17741;SDS011;8993;51.822;-2.268;2023-03-01T13:44:54;7.23;;;1.99;;
17741;SDS011;8993;51.822;-2.268;2023-03-01T13:49:59;4.67;;;2.12;;
17741;SDS011;8993;51.822;-2.268;2023-03-01T13:55:03;5.42;;;2.00;;
17741;SDS011;8993;51.822;-2.268;2023-03-01T14:00:24;5.51;;;1.94;;
17741;SDS011;8993;51.822;-2.268;2023-03-01T14:05:10;5.13;;;2.38;;
17741;SDS011;8993;51.822;-2.268;2023-03-01T14:10:15;6.49;;;3.30;;
17741;SDS011;8993;51.822;-2.268;2023-03-01T14:15:20;7.91;;;2.97;;
17741;SDS011;8993;51.822;-2.268;2023-03-01T14:20:23;5.98;;;3.17;;
17741;SDS011;8993;51.822;-2.268;2023-03-01T14:25:27;8.13;;;3.22;;
17741;SDS011;8993;51.822;-2.268;2023-03-01T14:30:32;7.91;;;3.49;;
17741;SDS011;8993;51.822;-2.268;2023-03-01T14:35:35;8.32;;;3.56;;
17741;SDS011;8993;51.822;-2.268;2023-03-01T14:40:40;7.35;;;3.55;;
17741;SDS011;8993;51.822;-2.268;2023-03-01T14:45:47;8.53;;;3.43;;
17741;SDS011;8993;51.822;-2.268;2023-03-01T14:50:48;6.97;;;3.06;;
17741;SDS011;8993;51.822;-2.268;2023-03-01T14:55:54;8.75;;;3.77;;
17741;SDS011;8993;51.822;-2.268;2023-03-01T15:01:03;8.82;;;2.86;;
17741;SDS011;8993;51.822;-2.268;2023-03-01T15:06:07;6.42;;;2.50;;
17741;SDS011;8993;51.822;-2.268;2023-03-01T15:11:17;8.05;;;3.02;;
17741;SDS011;8993;51.822;-2.268;2023-03-01T15:16:15;6.79;;;2.59;;
17741;SDS011;8993;51.822;-2.268;2023-03-01T15:21:19;9.48;;;2.47;;
17741;SDS011;8993;51.822;-2.268;2023-03-01T15:26:23;6.82;;;2.45;;
17741;SDS011;8993;51.822;-2.268;2023-03-01T15:31:27;6.57;;;2.19;;
17741;SDS011;8993;51.822;-2.268;2023-03-01T15:36:32;7.86;;;2.12;;
17741;SDS011;8993;51.822;-2.268;2023-03-01T15:41:37;5.49;;;1.84;;
17741;SDS011;8993;51.822;-2.268;2023-03-01T15:46:38;7.26;;;2.25;;
17741;SDS011;8993;51.822;-2.268;2023-03-01T15:51:42;5.53;;;1.69;;
17741;SDS011;8993;51.822;-2.268;2023-03-01T15:56:46;5.83;;;1.70;;
17741;SDS011;8993;51.822;-2.268;2023-03-01T16:01:50;5.32;;;1.88;;
17741;SDS011;8993;51.822;-2.268;2023-03-01T16:06:54;8.99;;;3.58;;
17741;SDS011;8993;51.822;-2.268;2023-03-01T16:11:58;7.65;;;2.56;;
17741;SDS011;8993;51.822;-2.268;2023-03-01T16:17:03;7.02;;;2.93;;
17741;SDS011;8993;51.822;-2.268;2023-03-01T16:22:08;8.90;;;3.25;;
17741;SDS011;8993;51.822;-2.268;2023-03-01T16:27:11;8.45;;;2.94;;
17741;SDS011;8993;51.822;-2.268;2023-03-01T16:32:15;11.44;;;4.94;;
17741;SDS011;8993;51.822;-2.268;2023-03-01T16:37:19;13.71;;;5.63;;
17741;SDS011;8993;51.822;-2.268;2023-03-01T16:42:23;15.81;;;7.06;;
17741;SDS011;8993;51.822;-2.268;2023-03-01T16:47:27;14.11;;;5.95;;
17741;SDS011;8993;51.822;-2.268;2023-03-01T16:52:31;11.89;;;5.19;;
17741;SDS011;8993;51.822;-2.268;2023-03-01T16:57:36;9.40;;;4.38;;
17741;SDS011;8993;51.822;-2.268;2023-03-01T17:02:40;9.97;;;3.87;;
17741;SDS011;8993;51.822;-2.268;2023-03-01T17:07:44;8.72;;;4.25;;
17741;SDS011;8993;51.822;-2.268;2023-03-01T17:12:50;13.81;;;6.06;;
17741;SDS011;8993;51.822;-2.268;2023-03-01T17:17:54;17.34;;;7.54;;
17741;SDS011;8993;51.822;-2.268;2023-03-01T17:22:58;16.42;;;6.76;;
17741;SDS011;8993;51.822;-2.268;2023-03-01T17:28:02;14.08;;;6.06;;
17741;SDS011;8993;51.822;-2.268;2023-03-01T17:33:06;12.84;;;5.18;;
17741;SDS011;8993;51.822;-2.268;2023-03-01T17:38:10;11.55;;;5.01;;
17741;SDS011;8993;51.822;-2.268;2023-03-01T17:43:15;13.63;;;5.27;;
17741;SDS011;8993;51.822;-2.268;2023-03-01T17:48:18;13.17;;;5.58;;
17741;SDS011;8993;51.822;-2.268;2023-03-01T17:53:24;15.61;;;7.11;;
17741;SDS011;8993;51.822;-2.268;2023-03-01T17:58:28;45.81;;;22.47;;
17741;SDS011;8993;51.822;-2.268;2023-03-01T18:03:32;33.02;;;18.63;;
17741;SDS011;8993;51.822;-2.268;2023-03-01T18:08:36;20.75;;;10.33;;
17741;SDS011;8993;51.822;-2.268;2023-03-01T18:13:41;13.20;;;5.32;;
17741;SDS011;8993;51.822;-2.268;2023-03-01T18:18:45;24.35;;;12.08;;
17741;SDS011;8993;51.822;-2.268;2023-03-01T18:23:49;24.03;;;11.95;;
17741;SDS011;8993;51.822;-2.268;2023-03-01T18:28:53;22.48;;;11.30;;
17741;SDS011;8993;51.822;-2.268;2023-03-01T18:33:57;20.55;;;8.86;;
17741;SDS011;8993;51.822;-2.268;2023-03-01T18:39:01;20.38;;;8.20;;
17741;SDS011;8993;51.822;-2.268;2023-03-01T18:44:06;14.89;;;6.37;;
17741;SDS011;8993;51.822;-2.268;2023-03-01T18:49:09;14.11;;;5.72;;
17741;SDS011;8993;51.822;-2.268;2023-03-01T18:54:13;14.88;;;6.39;;
17741;SDS011;8993;51.822;-2.268;2023-03-01T18:59:17;14.65;;;6.17;;
17741;SDS011;8993;51.822;-2.268;2023-03-01T19:04:21;18.09;;;7.03;;
17741;SDS011;8993;51.822;-2.268;2023-03-01T19:09:26;14.26;;;6.48;;
17741;SDS011;8993;51.822;-2.268;2023-03-01T19:14:30;14.72;;;7.04;;
17741;SDS011;8993;51.822;-2.268;2023-03-01T19:19:34;15.79;;;6.44;;
17741;SDS011;8993;51.822;-2.268;2023-03-01T19:24:40;20.01;;;8.24;;
17741;SDS011;8993;51.822;-2.268;2023-03-01T19:29:44;15.19;;;6.27;;
17741;SDS011;8993;51.822;-2.268;2023-03-01T19:34:47;16.30;;;7.12;;
17741;SDS011;8993;51.822;-2.268;2023-03-01T19:39:51;12.70;;;6.42;;
17741;SDS011;8993;51.822;-2.268;2023-03-01T19:44:56;11.93;;;5.42;;
17741;SDS011;8993;51.822;-2.268;2023-03-01T19:50:00;15.03;;;6.14;;
17741;SDS011;8993;51.822;-2.268;2023-03-01T19:55:04;16.24;;;6.39;;
17741;SDS011;8993;51.822;-2.268;2023-03-01T20:00:09;14.10;;;5.85;;
17741;SDS011;8993;51.822;-2.268;2023-03-01T20:05:12;15.66;;;6.04;;
17741;SDS011;8993;51.822;-2.268;2023-03-01T20:10:16;15.96;;;6.31;;
17741;SDS011;8993;51.822;-2.268;2023-03-01T20:15:20;11.79;;;4.45;;
17741;SDS011;8993;51.822;-2.268;2023-03-01T20:20:25;10.35;;;3.97;;
17741;SDS011;8993;51.822;-2.268;2023-03-01T20:25:29;13.64;;;5.25;;
17741;SDS011;8993;51.822;-2.268;2023-03-01T20:30:33;15.56;;;5.72;;
17741;SDS011;8993;51.822;-2.268;2023-03-01T20:35:39;15.08;;;7.03;;
17741;SDS011;8993;51.822;-2.268;2023-03-01T20:40:41;17.23;;;8.39;;
17741;SDS011;8993;51.822;-2.268;2023-03-01T20:45:45;18.16;;;7.80;;
17741;SDS011;8993;51.822;-2.268;2023-03-01T20:50:50;22.89;;;11.54;;
17741;SDS011;8993;51.822;-2.268;2023-03-01T20:55:54;16.31;;;8.03;;
17741;SDS011;8993;51.822;-2.268;2023-03-01T21:00:58;16.27;;;7.62;;
17741;SDS011;8993;51.822;-2.268;2023-03-01T21:06:04;19.50;;;9.13;;
17741;SDS011;8993;51.822;-2.268;2023-03-01T21:11:08;15.94;;;7.88;;
17741;SDS011;8993;51.822;-2.268;2023-03-01T21:16:13;16.14;;;6.10;;
17741;SDS011;8993;51.822;-2.268;2023-03-01T21:21:21;15.01;;;5.85;;
17741;SDS011;8993;51.822;-2.268;2023-03-01T21:26:25;13.03;;;4.70;;
17741;SDS011;8993;51.822;-2.268;2023-03-01T21:31:29;10.86;;;4.18;;
17741;SDS011;8993;51.822;-2.268;2023-03-01T21:36:33;14.36;;;4.78;;
17741;SDS011;8993;51.822;-2.268;2023-03-01T21:41:39;11.61;;;3.93;;
17741;SDS011;8993;51.822;-2.268;2023-03-01T21:46:43;11.74;;;4.29;;
17741;SDS011;8993;51.822;-2.268;2023-03-01T21:51:47;13.95;;;3.48;;
17741;SDS011;8993;51.822;-2.268;2023-03-01T21:56:52;11.88;;;3.70;;
17741;SDS011;8993;51.822;-2.268;2023-03-01T22:01:56;13.26;;;4.30;;
17741;SDS011;8993;51.822;-2.268;2023-03-01T22:07:00;14.61;;;5.35;;
17741;SDS011;8993;51.822;-2.268;2023-03-01T22:12:05;17.53;;;5.48;;
17741;SDS011;8993;51.822;-2.268;2023-03-01T22:17:09;16.68;;;5.33;;
17741;SDS011;8993;51.822;-2.268;2023-03-01T22:22:13;14.26;;;4.50;;
17741;SDS011;8993;51.822;-2.268;2023-03-01T22:27:17;14.04;;;4.60;;
17741;SDS011;8993;51.822;-2.268;2023-03-01T22:32:21;14.85;;;4.63;;
17741;SDS011;8993;51.822;-2.268;2023-03-01T22:37:24;16.50;;;4.94;;
17741;SDS011;8993;51.822;-2.268;2023-03-01T22:42:34;17.15;;;4.74;;
17741;SDS011;8993;51.822;-2.268;2023-03-01T22:47:39;15.03;;;4.14;;
17741;SDS011;8993;51.822;-2.268;2023-03-01T22:52:42;16.47;;;4.29;;
17741;SDS011;8993;51.822;-2.268;2023-03-01T22:57:48;15.05;;;4.26;;
17741;SDS011;8993;51.822;-2.268;2023-03-01T23:02:52;15.01;;;3.84;;
17741;SDS011;8993;51.822;-2.268;2023-03-01T23:07:56;12.28;;;3.46;;
17741;SDS011;8993;51.822;-2.268;2023-03-01T23:13:00;14.12;;;3.54;;
17741;SDS011;8993;51.822;-2.268;2023-03-01T23:18:05;13.47;;;3.60;;
17741;SDS011;8993;51.822;-2.268;2023-03-01T23:23:08;13.31;;;3.75;;
17741;SDS011;8993;51.822;-2.268;2023-03-01T23:28:12;12.78;;;3.94;;
17741;SDS011;8993;51.822;-2.268;2023-03-01T23:33:16;13.34;;;3.79;;
17741;SDS011;8993;51.822;-2.268;2023-03-01T23:38:20;15.30;;;4.36;;
17741;SDS011;8993;51.822;-2.268;2023-03-01T23:43:24;14.95;;;4.61;;
17741;SDS011;8993;51.822;-2.268;2023-03-01T23:48:28;13.33;;;4.67;;
17741;SDS011;8993;51.822;-2.268;2023-03-01T23:53:33;14.57;;;4.68;;
17741;SDS011;8993;51.822;-2.268;2023-03-01T23:58:36;13.80;;;5.04;;
